Time;durP1;ratioP1;P1;durP2;ratioP2;P2;SDS_P1;SDS_P2;PMS_P1;PMS_P2;Temp;Humidity;BMP_temperature;BMP_pressure;BME280_temperature;BME280_humidity;BME280_pressure;Samples;Min_cycle;Max_cycle;Signal;HPM_P1;HPM_P2
2022/06/12 00:02:55;;;;;;;12.10;8.90;;;;;;;13.46;75.96;99226.32;218245;1284;24117;-70
2022/06/12 00:07:57;;;;;;;10.30;9.00;;;;;;;13.37;75.75;99233.39;218125;1284;25323;-71
2022/06/12 00:13:00;;;;;;;10.20;9.00;;;;;;;13.31;76.00;99229.76;217594;1284;334799;-70
2022/06/12 00:18:06;;;;;;;10.90;9.20;;;;;;;13.26;76.35;99228.02;218032;1284;25381;-70
2022/06/12 00:23:15;;;;;;;10.30;9.30;;;;;;;13.23;76.86;99225.36;218230;1284;23808;-70
2022/06/12 00:28:21;;;;;;;11.10;9.40;;;;;;;13.19;76.94;99223.61;218339;1284;22996;-70
2022/06/12 00:33:26;;;;;;;10.90;9.40;;;;;;;13.14;77.20;99220.63;218339;1284;22562;-71
2022/06/12 00:38:29;;;;;;;12.10;9.80;;;;;;;13.08;77.12;99217.54;218534;1284;26390;-70
2022/06/12 00:43:32;;;;;;;12.40;9.80;;;;;;;13.03;77.29;99209.89;218457;1284;22676;-71
2022/06/12 00:48:40;;;;;;;11.60;9.60;;;;;;;12.97;77.77;99209.92;218452;1283;25264;-70
2022/06/12 00:53:58;;;;;;;12.40;9.90;;;;;;;12.95;77.98;99211.98;218781;1284;22817;-71
2022/06/12 00:59:49;;;;;;;11.10;9.50;;;;;;;12.91;78.12;99211.84;218918;1284;25345;-70
2022/06/12 01:10:28;;;;;;;11.10;10.00;;;;;;;12.82;78.23;99205.79;218571;1283;22641;-71
2022/06/12 01:16:05;;;;;;;12.20;10.00;;;;;;;12.76;78.36;99201.64;219139;1284;23141;-71
2022/06/12 01:21:21;;;;;;;11.20;10.00;;;;;;;12.72;78.50;99201.23;218554;1284;22581;-70
2022/06/12 01:26:45;;;;;;;13.30;10.40;;;;;;;12.66;78.54;99196.52;218587;1284;24321;-70
2022/06/12 01:31:48;;;;;;;16.70;11.80;;;;;;;12.60;78.68;99197.10;217981;1284;23214;-70
2022/06/12 01:37:09;;;;;;;15.10;12.20;;;;;;;12.56;78.98;99193.98;218414;1284;22675;-71
2022/06/12 01:42:23;;;;;;;13.50;12.10;;;;;;;12.52;78.94;99194.05;218572;1284;26280;-70
2022/06/12 01:48:09;;;;;;;12.60;11.30;;;;;;;12.46;79.15;99192.17;218726;1282;25261;-70
2022/06/12 01:53:44;;;;;;;14.40;11.40;;;;;;;12.42;79.49;99191.70;217964;1284;22582;-71
2022/06/12 01:59:29;;;;;;;13.00;11.70;;;;;;;12.38;79.56;99195.80;218205;1284;24090;-71
2022/06/12 02:05:29;;;;;;;12.20;10.90;;;;;;;12.33;79.98;99192.62;218365;1284;22547;-69
2022/06/12 02:16:49;;;;;;;13.20;11.20;;;;;;;12.28;80.54;99188.72;217635;1284;22645;-70
2022/06/12 02:22:22;;;;;;;11.90;10.10;;;;;;;12.26;80.50;99185.48;219005;1284;22576;-70
2022/06/12 02:27:32;;;;;;;13.20;9.90;;;;;;;12.22;80.75;99183.02;218432;1284;24277;-71
2022/06/12 02:32:47;;;;;;;11.50;9.60;;;;;;;12.18;80.94;99180.70;218732;1284;25439;-71
2022/06/12 02:38:17;;;;;;;12.20;9.40;;;;;;;12.12;80.86;99186.09;218599;1284;22578;-70
2022/06/12 02:43:35;;;;;;;11.80;9.80;;;;;;;12.04;80.77;99187.64;218735;1284;22629;-71
2022/06/12 02:48:48;;;;;;;13.70;9.70;;;;;;;11.99;80.97;99186.50;217828;1285;25285;-71
2022/06/12 02:54:38;;;;;;;9.60;8.60;;;;;;;11.96;81.15;99189.77;217857;1284;25403;-71
2022/06/12 03:00:06;;;;;;;9.70;8.70;;;;;;;11.94;81.30;99197.41;217875;1285;22624;-71
2022/06/12 03:05:22;;;;;;;10.00;9.00;;;;;;;11.95;81.39;99198.42;217998;1284;22564;-71
2022/06/12 03:10:57;;;;;;;9.60;8.70;;;;;;;11.99;81.46;99206.28;219127;1284;24403;-71
2022/06/12 03:16:17;;;;;;;9.50;8.60;;;;;;;12.07;81.74;99207.13;218614;1284;22566;-70
2022/06/12 03:21:26;;;;;;;10.40;9.10;;;;;;;12.33;82.19;99205.53;218690;1284;24269;-71
2022/06/12 03:27:33;;;;;;;10.10;8.80;;;;;;;12.79;82.12;99202.56;219196;1284;22601;-71
2022/06/12 03:33:46;;;;;;;9.80;8.90;;;;;;;13.42;81.65;99201.88;218034;1285;24380;-70
2022/06/12 03:38:52;;;;;;;10.00;9.00;;;;;;;14.07;81.17;99201.67;218116;1284;24978;-71
2022/06/12 03:44:14;;;;;;;9.30;8.00;;;;;;;14.67;80.10;99204.76;219364;1284;22578;-70
2022/06/12 03:49:58;;;;;;;9.60;7.90;;;;;;;15.21;78.49;99205.34;219007;1284;25483;-70
2022/06/12 03:55:01;;;;;;;11.00;8.30;;;;;;;15.73;77.32;99205.52;218838;1283;22592;-70
2022/06/12 04:00:41;;;;;;;9.40;8.10;;;;;;;16.24;76.24;99209.33;219063;1284;23844;-71
2022/06/12 04:05:53;;;;;;;8.50;7.60;;;;;;;16.80;76.11;99208.07;218553;1284;25433;-71
2022/06/12 04:11:03;;;;;;;8.20;7.40;;;;;;;17.30;75.15;99208.19;218081;1284;22651;-71
2022/06/12 04:16:21;;;;;;;10.80;9.10;;;;;;;17.48;74.41;99209.34;218483;1284;25562;-70
2022/06/12 04:21:59;;;;;;;9.90;8.80;;;;;;;17.44;73.17;99213.02;218090;1284;24127;-71
2022/06/12 04:27:26;;;;;;;12.50;9.30;;;;;;;17.13;72.65;99217.30;218288;1284;22959;-70
2022/06/12 04:32:31;;;;;;;;;;;;;;;16.89;72.75;99217.24;217912;1284;24473;-71
2022/06/12 04:37:36;;;;;;;14.30;9.10;;;;;;;16.77;73.56;99213.95;217988;1284;22557;-70
2022/06/12 04:49:46;;;;;;;10.60;9.10;;;;;;;16.90;74.31;99214.40;219153;1284;23971;-71
2022/06/12 04:55:41;;;;;;;9.90;8.90;;;;;;;17.04;74.75;99213.80;218357;1284;24813;-71
2022/06/12 05:01:29;;;;;;;11.10;9.80;;;;;;;17.19;74.58;99220.13;218883;1284;22623;-71
2022/06/12 05:06:49;;;;;;;11.10;9.20;;;;;;;17.24;74.45;99224.41;218583;1283;22613;-71
2022/06/12 05:12:24;;;;;;;12.10;8.40;;;;;;;17.39;74.72;99226.14;218626;1283;22657;-74
2022/06/12 05:17:45;;;;;;;8.00;7.10;;;;;;;17.56;73.76;99233.66;219174;1284;25269;-72
2022/06/12 05:23:32;;;;;;;10.00;8.10;;;;;;;17.67;72.42;99234.71;218148;1284;22748;-72
2022/06/12 05:29:36;;;;;;;9.30;7.00;;;;;;;17.87;72.55;99237.77;219162;1284;25383;-71
2022/06/12 05:41:13;;;;;;;9.40;6.90;;;;;;;18.15;70.63;99239.98;219335;1284;26497;-72
2022/06/12 05:46:58;;;;;;;6.90;6.20;;;;;;;18.28;69.72;99235.66;219383;1284;23318;-71
2022/06/12 05:53:10;;;;;;;8.00;5.70;;;;;;;18.51;69.55;99235.64;218561;1283;22572;-71
2022/06/12 05:58:56;;;;;;;9.00;5.20;;;;;;;18.75;68.61;99232.63;217967;1284;22728;-70
2022/06/12 06:03:59;;;;;;;5.90;5.20;;;;;;;18.96;68.49;99230.63;217818;1284;26916;-71
2022/06/12 06:09:13;;;;;;;6.30;5.20;;;;;;;19.18;68.03;99230.23;218335;1283;25292;-71
2022/06/12 06:14:21;;;;;;;6.40;5.40;;;;;;;19.36;67.39;99232.86;218746;1284;25367;-71
2022/06/12 06:19:26;;;;;;;5.10;4.60;;;;;;;19.57;67.28;99238.54;218824;1284;22593;-72
2022/06/12 06:24:46;;;;;;;19.40;17.30;;;;;;;19.80;66.81;99239.13;219271;1284;25459;-71
2022/06/12 06:29:51;;;;;;;6.10;4.60;;;;;;;19.99;65.89;99240.85;219193;1284;25389;-71
2022/06/12 06:34:54;;;;;;;3.70;3.40;;;;;;;20.12;64.49;99244.30;218702;1284;22575;-71
2022/06/12 06:40:05;;;;;;;4.70;2.80;;;;;;;20.25;63.98;99249.36;218571;1284;22614;-72
2022/06/12 06:50:34;;;;;;;3.00;2.70;;;;;;;20.47;61.82;99239.13;218798;1284;22604;-71
2022/06/12 06:55:38;;;;;;;5.10;3.00;;;;;;;20.65;61.88;99237.64;218934;1284;22670;-70
2022/06/12 07:00:43;;;;;;;5.80;3.30;;;;;;;20.84;61.08;99235.19;219471;1284;22605;-71
2022/06/12 07:05:48;;;;;;;4.20;3.80;;;;;;;21.11;61.06;99236.63;218784;1284;24399;-70
2022/06/12 07:10:58;;;;;;;2.90;2.60;;;;;;;21.37;61.29;99243.14;218651;1284;23275;-72
2022/06/12 07:16:01;;;;;;;4.50;3.00;;;;;;;21.63;59.74;99239.36;218360;1284;22563;-71
2022/06/12 07:21:05;;;;;;;4.00;2.90;;;;;;;21.79;58.98;99243.35;218292;1284;25330;-72
2022/06/12 07:26:26;;;;;;;5.10;2.60;;;;;;;21.93;57.77;99232.85;218897;1284;24873;-71
2022/06/12 07:31:50;;;;;;;2.90;2.70;;;;;;;22.04;56.56;99228.20;218403;1284;22548;-71
2022/06/12 07:36:55;;;;;;;4.70;3.10;;;;;;;22.28;57.24;99227.77;219377;1284;22594;-70
2022/06/12 07:42:06;;;;;;;5.60;5.00;;;;;;;22.57;57.12;99225.36;219483;1285;22618;-72
2022/06/12 07:47:11;;;;;;;6.90;4.20;;;;;;;22.87;57.19;99224.33;218803;1284;22744;-71
2022/06/12 07:52:18;;;;;;;4.70;3.90;;;;;;;23.05;56.59;99225.21;218970;1284;22585;-72
2022/06/12 07:57:27;;;;;;;4.70;3.40;;;;;;;23.18;56.15;99222.41;218874;1284;22557;-70
2022/06/12 08:02:46;;;;;;;4.40;4.00;;;;;;;23.37;55.91;99223.40;218449;1284;24291;-72
2022/06/12 08:08:06;;;;;;;4.30;3.00;;;;;;;23.64;55.79;99228.31;219118;1284;22573;-70
2022/06/12 08:13:23;;;;;;;3.70;3.00;;;;;;;23.83;53.60;99230.41;218941;1284;24241;-71
2022/06/12 08:18:28;;;;;;;3.70;3.40;;;;;;;23.89;53.28;99230.30;218799;1284;25264;-71
2022/06/12 08:23:52;;;;;;;3.30;3.00;;;;;;;24.07;52.88;99228.39;218709;1284;22545;-72
2022/06/12 08:29:02;;;;;;;4.60;3.50;;;;;;;24.19;51.57;99231.77;217720;1285;22725;-71
2022/06/12 08:34:22;;;;;;;5.40;3.00;;;;;;;24.25;51.04;99228.49;218907;1284;25490;-70
2022/06/12 08:39:29;;;;;;;3.70;2.30;;;;;;;24.35;50.55;99229.55;219275;1284;22563;-71
2022/06/12 08:44:40;;;;;;;3.60;2.90;;;;;;;24.38;49.31;99228.36;219413;1284;22616;-72
2022/06/12 08:50:04;;;;;;;4.10;3.70;;;;;;;24.38;49.37;99222.41;219434;1284;22572;-71
2022/06/12 08:55:32;;;;;;;4.10;3.70;;;;;;;24.41;49.34;99214.80;219362;1284;22581;-72
2022/06/12 09:00:37;;;;;;;3.70;2.80;;;;;;;24.59;49.17;99217.86;219183;1282;22502;-71
2022/06/12 09:06:01;;;;;;;3.40;3.10;;;;;;;24.76;48.84;99210.79;219244;1284;22640;-71
2022/06/12 09:11:13;;;;;;;3.00;2.70;;;;;;;24.84;48.47;99209.86;219265;1284;22572;-71
2022/06/12 09:16:36;;;;;;;3.40;3.10;;;;;;;24.94;48.41;99203.32;219184;1283;25460;-70
2022/06/12 09:22:02;;;;;;;3.10;2.50;;;;;;;25.02;47.78;99205.98;219029;1283;22633;-71
2022/06/12 09:27:12;;;;;;;4.40;3.10;;;;;;;25.00;47.00;99198.21;218899;1284;25273;-72
2022/06/12 09:32:42;;;;;;;3.60;2.90;;;;;;;25.06;46.40;99196.80;218401;1284;22568;-71
2022/06/12 09:38:20;;;;;;;3.90;3.40;;;;;;;25.03;45.90;99188.86;218866;1284;25714;-70
2022/06/12 09:43:37;;;;;;;3.30;3.00;;;;;;;25.22;46.12;99182.46;218782;1284;22557;-70
2022/06/12 09:48:49;;;;;;;4.60;2.80;;;;;;;25.51;46.07;99179.84;219304;1284;22727;-72
2022/06/12 09:54:30;;;;;;;3.80;3.00;;;;;;;25.69;45.59;99174.58;218995;1284;23120;-70
2022/06/12 10:00:01;;;;;;;2.80;2.50;;;;;;;25.82;44.96;99165.34;218764;1284;25320;-70
2022/06/12 10:05:20;;;;;;;3.00;2.80;;;;;;;25.87;44.84;99164.75;218779;1284;24522;-71
2022/06/12 10:11:08;;;;;;;3.60;3.00;;;;;;;25.94;44.58;99162.52;218955;1284;22551;-71
2022/06/12 10:16:20;;;;;;;3.10;2.80;;;;;;;26.06;44.20;99161.45;218665;1284;24327;-71
2022/06/12 10:21:47;;;;;;;5.80;5.10;;;;;;;26.23;43.87;99156.44;218591;1284;22725;-71
2022/06/12 10:27:11;;;;;;;4.70;4.30;;;;;;;26.35;43.37;99151.00;219175;1284;24386;-72
2022/06/12 10:32:20;;;;;;;3.10;2.90;;;;;;;26.48;42.95;99146.42;219138;1284;25428;-70
2022/06/12 10:37:28;;;;;;;3.40;3.10;;;;;;;26.72;42.97;99137.56;218843;1284;23535;-72
2022/06/12 10:43:00;;;;;;;4.00;3.10;;;;;;;26.80;42.12;99131.92;219360;1285;22655;-70
2022/06/12 10:48:21;;;;;;;3.60;3.30;;;;;;;26.82;42.00;99132.89;219158;1282;22575;-71
2022/06/12 10:53:26;;;;;;;3.20;2.90;;;;;;;26.92;42.28;99130.79;218579;1284;24261;-72
2022/06/12 10:58:48;;;;;;;4.30;3.60;;;;;;;27.13;42.32;99123.66;218644;1284;25321;-72
2022/06/12 11:03:56;;;;;;;3.80;3.20;;;;;;;27.47;42.18;99116.14;218962;1284;22617;-71
2022/06/12 11:09:16;;;;;;;3.60;2.90;;;;;;;27.74;41.94;99113.35;218837;1284;25388;-71
2022/06/12 11:14:35;;;;;;;4.00;3.60;;;;;;;27.90;41.28;99105.37;219198;1284;22583;-71
2022/06/12 11:19:37;;;;;;;;;;;;;;;28.04;41.00;99103.38;219108;1285;22548;-71
2022/06/12 11:25:18;;;;;;;3.60;3.30;;;;;;;28.16;40.09;99096.58;218796;1284;22618;-71
2022/06/12 11:30:39;;;;;;;4.30;3.90;;;;;;;27.88;39.18;99093.58;218695;1284;23600;-72
2022/06/12 11:35:55;;;;;;;3.50;3.20;;;;;;;27.83;39.58;99083.13;218703;1284;22612;-71
2022/06/12 11:41:08;;;;;;;2.90;2.70;;;;;;;27.90;39.37;99078.39;219244;1284;25402;-71
2022/06/12 11:46:41;;;;;;;2.90;2.70;;;;;;;27.89;39.26;99072.96;219004;1284;22585;-72
2022/06/12 11:52:19;;;;;;;3.20;2.90;;;;;;;28.03;39.60;99063.73;218568;1284;22573;-71
2022/06/12 11:57:29;;;;;;;3.20;3.00;;;;;;;28.27;39.82;99063.31;218873;1284;22683;-71
2022/06/12 12:02:54;;;;;;;5.10;3.30;;;;;;;28.42;39.66;99058.60;218728;1284;22561;-72
2022/06/12 12:08:32;;;;;;;3.40;3.10;;;;;;;28.51;39.37;99055.02;219214;1283;23380;-71
2022/06/12 12:14:00;;;;;;;3.70;3.30;;;;;;;28.51;39.18;99044.54;218703;1285;481838;-71
2022/06/12 12:19:22;;;;;;;3.70;3.30;;;;;;;28.38;38.87;99046.73;219341;1285;23729;-73
2022/06/12 12:24:53;;;;;;;5.50;3.20;;;;;;;27.93;38.62;99042.77;219293;1285;25453;-70
2022/06/12 12:29:57;;;;;;;3.30;3.10;;;;;;;27.86;39.27;99036.65;219028;1284;24250;-71
2022/06/12 12:35:01;;;;;;;3.20;2.90;;;;;;;27.94;39.17;99032.61;218745;1284;22585;-71
2022/06/12 12:46:04;;;;;;;3.80;3.50;;;;;;;28.12;38.21;99030.59;219150;1285;22503;-72
2022/06/12 12:51:32;;;;;;;4.30;3.40;;;;;;;28.11;38.50;99031.14;218798;1284;25671;-72
2022/06/12 12:56:39;;;;;;;4.40;4.10;;;;;;;28.32;38.03;99025.60;218692;1284;22558;-71
2022/06/12 13:01:48;;;;;;;3.40;3.10;;;;;;;28.30;38.43;99021.36;218854;1284;25241;-72
2022/06/12 13:07:09;;;;;;;3.50;3.20;;;;;;;28.36;38.65;99018.51;218611;1284;25371;-71
2022/06/12 13:12:42;;;;;;;3.50;3.20;;;;;;;28.41;39.02;99012.02;218943;1284;22569;-71
2022/06/12 13:18:06;;;;;;;3.70;3.40;;;;;;;28.14;38.86;99008.00;218898;1285;22653;-71
2022/06/12 13:23:51;;;;;;;5.30;4.80;;;;;;;28.24;39.30;99007.64;219174;1285;25461;-71
2022/06/12 13:29:08;;;;;;;3.60;3.00;;;;;;;28.61;39.13;99001.97;218626;1284;22660;-71
2022/06/12 13:34:17;;;;;;;3.20;2.90;;;;;;;28.88;38.61;98995.79;218694;1284;22711;-71
2022/06/12 13:39:30;;;;;;;2.90;2.70;;;;;;;28.98;37.58;98996.64;219292;1284;24658;-72
2022/06/12 13:44:38;;;;;;;3.10;2.70;;;;;;;28.88;37.26;98995.16;219139;1284;22502;-72
2022/06/12 13:49:52;;;;;;;3.40;3.20;;;;;;;28.68;37.05;98984.61;218895;1284;25341;-72
2022/06/12 13:54:57;;;;;;;3.40;3.00;;;;;;;28.68;37.60;98977.75;218529;1284;22587;-71
2022/06/12 14:00:46;;;;;;;3.40;3.10;;;;;;;28.77;37.11;98976.73;219173;1284;25446;-72
2022/06/12 14:05:55;;;;;;;10.10;9.20;;;;;;;28.56;37.57;98972.79;218992;1284;23823;-72
2022/06/12 14:10:59;;;;;;;4.30;3.50;;;;;;;28.34;38.53;98967.20;218933;1284;23015;-72
2022/06/12 14:16:10;;;;;;;4.20;3.50;;;;;;;28.15;39.21;98968.25;219063;1284;25469;-71
2022/06/12 14:21:36;;;;;;;3.60;3.30;;;;;;;27.85;39.68;98966.75;219045;1284;25400;-71
2022/06/12 14:26:41;;;;;;;3.50;3.30;;;;;;;27.53;39.57;98970.65;218849;1284;24107;-71
2022/06/12 14:31:44;;;;;;;4.70;4.30;;;;;;;27.24;39.86;98968.89;218864;1284;24392;-72
2022/06/12 14:36:56;;;;;;;3.20;3.00;;;;;;;26.94;40.15;98966.35;219334;1285;24295;-71
2022/06/12 14:42:11;;;;;;;4.40;4.00;;;;;;;27.03;41.03;98960.76;219210;1284;25626;-71
2022/06/12 14:47:22;;;;;;;5.50;3.70;;;;;;;27.28;40.72;98955.83;219280;1285;22589;-72
2022/06/12 14:52:27;;;;;;;3.90;3.50;;;;;;;27.48;40.40;98946.53;218764;1284;22621;-72
2022/06/12 14:57:30;;;;;;;3.20;3.00;;;;;;;27.70;40.04;98941.10;219454;1282;22552;-72
2022/06/12 15:02:46;;;;;;;3.80;3.50;;;;;;;27.86;39.76;98934.97;219015;1284;24273;-72
2022/06/12 15:07:51;;;;;;;3.40;3.10;;;;;;;27.85;39.23;98930.56;218756;1284;22610;-72
2022/06/12 15:12:56;;;;;;;3.60;3.30;;;;;;;27.67;39.08;98924.52;218798;1284;25333;-71
2022/06/12 15:18:09;;;;;;;3.60;3.30;;;;;;;27.64;39.32;98919.11;219306;1283;23023;-72
2022/06/12 15:23:14;;;;;;;4.20;3.50;;;;;;;27.56;38.46;98909.63;218926;1284;22691;-72
2022/06/12 15:33:46;;;;;;;3.30;3.10;;;;;;;27.40;38.64;98897.04;218529;1284;22597;-72
2022/06/12 15:38:48;;;;;;;3.90;3.50;;;;;;;27.37;38.92;98890.61;219116;1284;22581;-71
2022/06/12 15:43:54;;;;;;;3.50;3.20;;;;;;;27.45;38.78;98889.17;218875;1283;24282;-71
2022/06/12 15:48:57;;;;;;;5.50;4.90;;;;;;;27.45;38.77;98883.75;219273;1284;22680;-71
2022/06/12 15:54:00;;;;;;;4.00;3.40;;;;;;;27.55;38.88;98880.86;219000;1284;22716;-72
2022/06/12 15:59:18;;;;;;;3.70;3.40;;;;;;;27.68;38.87;98872.77;218636;1284;22661;-71
2022/06/12 16:04:34;;;;;;;4.10;3.80;;;;;;;27.77;38.59;98871.95;219192;1284;25452;-72
2022/06/12 16:09:44;;;;;;;3.60;3.30;;;;;;;27.72;38.12;98868.29;218928;1284;24180;-71
2022/06/12 16:14:49;;;;;;;3.60;3.30;;;;;;;27.67;38.12;98859.50;218862;1284;24275;-71
2022/06/12 16:19:56;;;;;;;3.50;3.20;;;;;;;27.59;38.03;98856.41;218922;1284;22673;-71
2022/06/12 16:24:59;;;;;;;3.30;3.10;;;;;;;27.56;38.42;98853.83;218507;1284;22568;-73
2022/06/12 16:30:08;;;;;;;6.80;6.10;;;;;;;27.54;38.04;98847.07;218870;1284;25371;-71
2022/06/12 16:35:13;;;;;;;3.90;3.60;;;;;;;27.40;37.64;98843.61;219017;1284;22583;-71
2022/06/12 16:40:25;;;;;;;4.40;3.60;;;;;;;27.25;38.02;98841.85;218998;1284;22578;-72
2022/06/12 16:45:28;;;;;;;3.60;3.40;;;;;;;27.19;38.44;98842.81;218992;1284;22587;-71
2022/06/12 16:50:31;;;;;;;4.20;3.90;;;;;;;27.06;38.31;98840.52;218750;1284;22576;-72
2022/06/12 16:55:33;;;;;;;3.70;3.10;;;;;;;26.95;38.73;98830.88;218938;1284;25544;-71
2022/06/12 17:00:35;;;;;;;4.00;3.60;;;;;;;26.95;39.05;98830.88;218933;1284;26392;-71
2022/06/12 17:05:41;;;;;;;3.80;3.50;;;;;;;26.87;38.99;98828.00;218614;1284;22547;-72
2022/06/12 17:10:43;;;;;;;4.40;3.90;;;;;;;27.60;39.36;98830.04;218701;1284;22570;-72
2022/06/12 17:15:46;;;;;;;4.30;3.40;;;;;;;28.96;38.37;98829.79;218462;1285;22625;-72
2022/06/12 17:20:48;;;;;;;3.20;2.80;;;;;;;30.21;37.08;98825.50;218659;1284;22555;-71
2022/06/12 17:25:52;;;;;;;3.70;3.40;;;;;;;30.90;35.61;98825.63;218780;1284;22735;-72
2022/06/12 17:31:04;;;;;;;4.00;3.70;;;;;;;31.31;35.21;98823.86;218595;1284;22575;-72
2022/06/12 17:36:29;;;;;;;2.90;2.70;;;;;;;31.27;33.99;98823.48;219190;1284;24798;-71
2022/06/12 17:41:46;;;;;;;3.20;2.90;;;;;;;30.12;34.15;98827.54;219290;1284;22575;-72
2022/06/12 17:47:03;;;;;;;3.20;3.00;;;;;;;29.07;35.19;98826.21;218824;1284;24478;-71
2022/06/12 17:52:08;;;;;;;5.60;3.70;;;;;;;28.40;36.07;98819.34;218821;1284;26508;-72
2022/06/12 17:57:14;;;;;;;3.60;3.30;;;;;;;27.77;36.57;98821.16;219131;1284;22781;-71
2022/06/12 18:02:16;;;;;;;4.50;3.00;;;;;;;27.20;37.42;98822.38;218821;1284;22601;-72
2022/06/12 18:07:18;;;;;;;5.20;3.30;;;;;;;26.75;38.30;98816.01;218518;1284;25444;-71
2022/06/12 18:12:21;;;;;;;4.00;3.70;;;;;;;26.32;39.04;98811.81;218587;1284;23404;-73
2022/06/12 18:22:50;;;;;;;4.10;3.70;;;;;;;25.49;41.09;98811.34;218907;1284;22635;-72
2022/06/12 18:27:57;;;;;;;4.60;4.20;;;;;;;25.03;42.36;98808.10;218752;1284;22621;-71
2022/06/12 18:33:07;;;;;;;4.40;3.90;;;;;;;24.65;43.20;98803.91;218571;1284;25440;-71
2022/06/12 18:38:35;;;;;;;4.90;4.40;;;;;;;24.29;44.07;98811.79;218898;1284;24347;-72
2022/06/12 18:43:38;;;;;;;5.80;5.00;;;;;;;23.96;45.08;98806.20;218994;1284;24404;-72
2022/06/12 18:48:43;;;;;;;5.90;4.70;;;;;;;23.65;45.66;98807.92;219213;1284;24279;-71
2022/06/12 18:53:45;;;;;;;4.90;4.40;;;;;;;23.33;46.18;98805.32;218653;1284;26789;-71
2022/06/12 18:58:51;;;;;;;4.60;4.30;;;;;;;23.04;46.78;98806.12;218484;1284;23899;-72
2022/06/12 19:03:57;;;;;;;5.50;4.30;;;;;;;22.74;47.55;98804.09;219103;1284;23558;-71
2022/06/12 19:09:02;;;;;;;5.00;4.60;;;;;;;22.47;48.40;98813.90;218772;1284;22719;-71
2022/06/12 19:14:09;;;;;;;36.80;32.80;;;;;;;22.12;49.44;98819.13;218849;1284;22575;-71
2022/06/12 19:19:15;;;;;;;8.50;7.60;;;;;;;21.82;50.40;98815.48;219049;1284;25849;-72
2022/06/12 19:24:28;;;;;;;5.50;5.10;;;;;;;21.57;51.31;98816.37;219390;1284;22719;-72
2022/06/12 19:29:46;;;;;;;14.00;12.20;;;;;;;21.34;52.04;98817.77;218692;1284;25537;-70
2022/06/12 19:35:00;;;;;;;7.10;6.40;;;;;;;21.12;52.70;98812.77;218759;1284;22669;-72
2022/06/12 19:40:13;;;;;;;5.90;4.90;;;;;;;20.93;53.55;98814.06;218699;1283;24303;-71
2022/06/12 19:45:56;;;;;;;5.30;4.80;;;;;;;20.74;54.58;98808.83;219332;1284;25722;-72
2022/06/12 19:51:23;;;;;;;5.60;4.90;;;;;;;20.57;54.85;98808.37;218942;1282;27695;-71
2022/06/12 19:56:34;;;;;;;6.50;5.20;;;;;;;20.41;55.17;98807.07;219215;1284;22587;-72
2022/06/12 20:01:40;;;;;;;5.60;5.10;;;;;;;20.26;55.62;98803.14;219096;1284;22726;-69
2022/06/12 20:12:07;;;;;;;5.80;5.20;;;;;;;19.99;56.68;98793.92;219338;1284;24254;-71
2022/06/12 20:17:10;;;;;;;6.20;5.20;;;;;;;19.86;57.17;98797.89;218546;1284;25350;-71
2022/06/12 20:22:14;;;;;;;5.60;5.00;;;;;;;19.75;58.01;98795.57;219200;1282;25705;-70
2022/06/12 20:27:17;;;;;;;4.90;4.50;;;;;;;19.63;58.45;98792.48;218838;1284;24343;-71
2022/06/12 20:32:23;;;;;;;4.80;4.10;;;;;;;19.54;58.66;98798.91;218964;1284;22616;-70
2022/06/12 20:37:26;;;;;;;4.80;4.40;;;;;;;19.46;58.64;98798.64;219008;1284;26250;-72
2022/06/12 20:42:42;;;;;;;6.60;5.30;;;;;;;19.38;58.80;98800.41;219192;1284;23250;-70
2022/06/12 20:47:46;;;;;;;6.00;5.40;;;;;;;19.28;59.35;98802.39;218722;1284;25278;-71
2022/06/12 20:52:49;;;;;;;5.60;5.00;;;;;;;19.17;59.87;98797.66;218901;1284;24344;-70
2022/06/12 20:57:51;;;;;;;7.00;5.20;;;;;;;19.06;60.33;98797.66;218450;1284;25374;-72
2022/06/12 21:02:54;;;;;;;5.80;5.30;;;;;;;18.93;60.54;98800.57;219017;1284;22644;-72
2022/06/12 21:08:06;;;;;;;7.30;6.40;;;;;;;18.81;60.91;98800.51;218904;1284;22555;-71
2022/06/12 21:13:18;;;;;;;7.80;7.00;;;;;;;18.69;61.10;98797.02;218843;1284;25318;-72
2022/06/12 21:18:21;;;;;;;8.80;7.00;;;;;;;18.58;61.31;98792.48;218856;1284;22599;-73
2022/06/12 21:23:51;;;;;;;7.90;7.00;;;;;;;18.49;61.68;98788.29;218654;1284;22590;-72
2022/06/12 21:29:04;;;;;;;7.90;6.60;;;;;;;18.39;62.01;98783.13;218475;1284;22560;-73
2022/06/12 21:34:19;;;;;;;7.30;6.70;;;;;;;18.31;62.12;98782.02;218929;1284;22569;-73
2022/06/12 21:39:25;;;;;;;7.60;6.70;;;;;;;18.24;62.49;98774.12;218906;1284;25376;-72
2022/06/12 21:44:46;;;;;;;7.60;6.30;;;;;;;18.14;62.71;98766.37;219122;1283;25394;-73
2022/06/12 21:50:24;;;;;;;6.60;6.00;;;;;;;18.04;63.02;98773.41;218976;1284;24240;-75
2022/06/12 21:55:50;;;;;;;8.00;7.20;;;;;;;17.95;63.32;98768.17;218805;1284;22556;-74
2022/06/12 22:01:06;;;;;;;8.50;7.60;;;;;;;17.85;63.76;98772.55;218918;1284;22579;-75
2022/06/12 22:06:28;;;;;;;8.40;7.60;;;;;;;17.75;64.14;98766.42;219055;1284;25579;-73
2022/06/12 22:12:01;;;;;;;8.60;7.80;;;;;;;17.65;64.34;98763.38;219070;1284;22550;-73
2022/06/12 22:17:18;;;;;;;8.70;7.90;;;;;;;17.56;64.79;98758.57;219123;1282;25397;-73
2022/06/12 22:22:24;;;;;;;8.30;7.60;;;;;;;17.47;65.08;98758.88;219156;1284;22671;-73
2022/06/12 22:27:29;;;;;;;7.80;6.90;;;;;;;17.38;65.45;98755.49;218950;1284;22609;-73
2022/06/12 22:32:43;;;;;;;7.70;6.90;;;;;;;17.32;65.61;98752.02;218899;1284;22540;-74
2022/06/12 22:37:49;;;;;;;8.30;7.50;;;;;;;17.26;65.83;98748.28;218898;1284;22622;-73
2022/06/12 22:42:51;;;;;;;6.90;6.30;;;;;;;17.22;66.01;98741.71;218815;1284;24567;-74
2022/06/12 22:48:00;;;;;;;7.20;6.40;;;;;;;17.17;66.20;98737.73;218545;1284;25344;-73
2022/06/12 22:53:03;;;;;;;7.50;6.50;;;;;;;17.13;66.25;98728.31;218679;1284;22608;-74
2022/06/12 22:58:35;;;;;;;7.60;6.90;;;;;;;17.12;66.66;98717.64;218830;1284;25173;-73
2022/06/12 23:03:38;;;;;;;7.70;6.80;;;;;;;17.14;66.65;98719.62;219205;1284;26518;-73
2022/06/12 23:08:45;;;;;;;8.00;7.20;;;;;;;17.16;66.64;98719.60;219093;1284;22728;-74
2022/06/12 23:13:49;;;;;;;7.70;6.90;;;;;;;17.17;66.95;98716.34;218839;1284;22585;-74
2022/06/12 23:18:52;;;;;;;8.10;7.20;;;;;;;17.19;66.96;98715.30;218913;1284;22602;-74
2022/06/12 23:24:08;;;;;;;7.50;6.70;;;;;;;17.17;66.98;98714.17;218809;1284;22486;-73
2022/06/12 23:29:25;;;;;;;7.80;7.00;;;;;;;17.14;67.01;98707.11;218877;1284;22556;-75
2022/06/12 23:40:13;;;;;;;9.50;7.80;;;;;;;17.05;66.95;98676.88;218899;1284;22556;-73
2022/06/12 23:45:15;;;;;;;9.30;8.20;;;;;;;16.98;67.19;98672.45;218831;1283;23787;-74
2022/06/12 23:50:17;;;;;;;8.50;7.60;;;;;;;16.93;67.56;98674.90;218659;1283;22608;-73
2022/06/12 23:55:44;;;;;;;10.50;8.70;;;;;;;16.90;67.98;98678.45;219134;1284;22571;-74
